sensor_id;sensor_type;location;lat;lon;timestamp;P1;durP1;ratioP1;P2;durP2;ratioP2
21890;SDS011;11110;52.386;16.940;2023-03-14T00:02:28;18.20;;;5.47;;
21890;SDS011;11110;52.386;16.940;2023-03-14T00:04:57;22.58;;;6.07;;
21890;SDS011;11110;52.386;16.940;2023-03-14T00:07:25;20.17;;;5.82;;
21890;SDS011;11110;52.386;16.940;2023-03-14T00:09:54;16.90;;;5.03;;
21890;SDS011;11110;52.386;16.940;2023-03-14T00:12:23;15.20;;;4.13;;
21890;SDS011;11110;52.386;16.940;2023-03-14T00:14:52;16.65;;;5.13;;
21890;SDS011;11110;52.386;16.940;2023-03-14T00:17:20;16.50;;;4.22;;
21890;SDS011;11110;52.386;16.940;2023-03-14T00:19:50;16.50;;;5.10;;
21890;SDS011;11110;52.386;16.940;2023-03-14T00:22:20;22.63;;;5.35;;
21890;SDS011;11110;52.386;16.940;2023-03-14T00:24:50;21.25;;;4.65;;
21890;SDS011;11110;52.386;16.940;2023-03-14T00:27:18;17.08;;;3.92;;
21890;SDS011;11110;52.386;16.940;2023-03-14T00:29:47;18.35;;;4.05;;
21890;SDS011;11110;52.386;16.940;2023-03-14T00:32:16;12.40;;;4.13;;
21890;SDS011;11110;52.386;16.940;2023-03-14T00:34:44;15.15;;;3.85;;
21890;SDS011;11110;52.386;16.940;2023-03-14T00:37:14;18.30;;;4.05;;
21890;SDS011;11110;52.386;16.940;2023-03-14T00:39:43;15.65;;;3.72;;
21890;SDS011;11110;52.386;16.940;2023-03-14T00:42:11;12.15;;;2.97;;
21890;SDS011;11110;52.386;16.940;2023-03-14T00:44:40;14.38;;;3.47;;
21890;SDS011;11110;52.386;16.940;2023-03-14T00:47:09;18.48;;;4.15;;
21890;SDS011;11110;52.386;16.940;2023-03-14T00:49:37;15.05;;;3.45;;
21890;SDS011;11110;52.386;16.940;2023-03-14T00:52:06;11.30;;;3.15;;
21890;SDS011;11110;52.386;16.940;2023-03-14T00:54:35;13.45;;;3.05;;
21890;SDS011;11110;52.386;16.940;2023-03-14T00:57:04;12.07;;;2.97;;
21890;SDS011;11110;52.386;16.940;2023-03-14T00:59:33;14.23;;;3.47;;
21890;SDS011;11110;52.386;16.940;2023-03-14T01:02:02;19.33;;;3.90;;
21890;SDS011;11110;52.386;16.940;2023-03-14T01:04:31;14.80;;;3.25;;
21890;SDS011;11110;52.386;16.940;2023-03-14T01:06:59;16.25;;;3.25;;
21890;SDS011;11110;52.386;16.940;2023-03-14T01:09:28;14.43;;;2.97;;
21890;SDS011;11110;52.386;16.940;2023-03-14T01:11:58;11.88;;;2.33;;
21890;SDS011;11110;52.386;16.940;2023-03-14T01:14:26;11.57;;;2.70;;
21890;SDS011;11110;52.386;16.940;2023-03-14T01:16:55;10.88;;;2.13;;
21890;SDS011;11110;52.386;16.940;2023-03-14T01:19:27;10.95;;;2.15;;
21890;SDS011;11110;52.386;16.940;2023-03-14T01:21:58;12.23;;;2.38;;
21890;SDS011;11110;52.386;16.940;2023-03-14T01:24:27;14.00;;;2.70;;
21890;SDS011;11110;52.386;16.940;2023-03-14T01:26:57;12.50;;;2.55;;
21890;SDS011;11110;52.386;16.940;2023-03-14T01:29:27;18.73;;;3.15;;
21890;SDS011;11110;52.386;16.940;2023-03-14T01:31:55;17.50;;;3.60;;
21890;SDS011;11110;52.386;16.940;2023-03-14T01:34:24;14.40;;;2.65;;
21890;SDS011;11110;52.386;16.940;2023-03-14T01:36:53;13.73;;;2.40;;
21890;SDS011;11110;52.386;16.940;2023-03-14T01:39:21;10.35;;;2.15;;
21890;SDS011;11110;52.386;16.940;2023-03-14T01:41:50;13.63;;;2.63;;
21890;SDS011;11110;52.386;16.940;2023-03-14T01:44:20;12.55;;;2.33;;
21890;SDS011;11110;52.386;16.940;2023-03-14T01:46:49;15.15;;;2.72;;
21890;SDS011;11110;52.386;16.940;2023-03-14T01:49:19;10.77;;;2.28;;
21890;SDS011;11110;52.386;16.940;2023-03-14T01:51:58;13.00;;;2.42;;
21890;SDS011;11110;52.386;16.940;2023-03-14T01:54:29;14.38;;;2.72;;
21890;SDS011;11110;52.386;16.940;2023-03-14T01:57:04;8.48;;;2.25;;
21890;SDS011;11110;52.386;16.940;2023-03-14T01:59:37;14.25;;;2.50;;
21890;SDS011;11110;52.386;16.940;2023-03-14T02:02:09;8.98;;;1.90;;
21890;SDS011;11110;52.386;16.940;2023-03-14T02:04:41;17.02;;;3.10;;
21890;SDS011;11110;52.386;16.940;2023-03-14T02:07:12;15.15;;;3.28;;
21890;SDS011;11110;52.386;16.940;2023-03-14T02:09:53;17.23;;;3.30;;
21890;SDS011;11110;52.386;16.940;2023-03-14T02:12:27;18.27;;;3.67;;
21890;SDS011;11110;52.386;16.940;2023-03-14T02:15:14;13.13;;;3.10;;
21890;SDS011;11110;52.386;16.940;2023-03-14T02:17:54;16.90;;;2.95;;
21890;SDS011;11110;52.386;16.940;2023-03-14T02:20:38;12.10;;;2.33;;
21890;SDS011;11110;52.386;16.940;2023-03-14T02:23:15;18.00;;;3.38;;
21890;SDS011;11110;52.386;16.940;2023-03-14T02:25:48;16.98;;;3.45;;
21890;SDS011;11110;52.386;16.940;2023-03-14T02:28:21;16.38;;;3.97;;
21890;SDS011;11110;52.386;16.940;2023-03-14T02:30:54;23.02;;;4.50;;
21890;SDS011;11110;52.386;16.940;2023-03-14T02:33:22;13.10;;;3.05;;
21890;SDS011;11110;52.386;16.940;2023-03-14T02:35:52;15.80;;;3.53;;
21890;SDS011;11110;52.386;16.940;2023-03-14T02:38:26;17.35;;;3.80;;
21890;SDS011;11110;52.386;16.940;2023-03-14T02:41:13;9.90;;;2.65;;
21890;SDS011;11110;52.386;16.940;2023-03-14T02:43:50;15.43;;;3.42;;
21890;SDS011;11110;52.386;16.940;2023-03-14T02:46:18;12.40;;;3.35;;
21890;SDS011;11110;52.386;16.940;2023-03-14T02:48:50;20.58;;;4.68;;
21890;SDS011;11110;52.386;16.940;2023-03-14T02:51:21;13.77;;;3.45;;
21890;SDS011;11110;52.386;16.940;2023-03-14T02:53:51;11.85;;;3.03;;
21890;SDS011;11110;52.386;16.940;2023-03-14T02:56:22;18.45;;;4.40;;
21890;SDS011;11110;52.386;16.940;2023-03-14T02:58:52;16.10;;;3.42;;
21890;SDS011;11110;52.386;16.940;2023-03-14T03:01:43;12.35;;;3.03;;
21890;SDS011;11110;52.386;16.940;2023-03-14T03:04:12;22.63;;;4.88;;
21890;SDS011;11110;52.386;16.940;2023-03-14T03:06:41;19.05;;;4.68;;
21890;SDS011;11110;52.386;16.940;2023-03-14T03:09:10;20.42;;;4.45;;
21890;SDS011;11110;52.386;16.940;2023-03-14T03:11:39;18.15;;;4.13;;
21890;SDS011;11110;52.386;16.940;2023-03-14T03:14:12;13.10;;;3.50;;
21890;SDS011;11110;52.386;16.940;2023-03-14T03:16:40;21.17;;;4.40;;
21890;SDS011;11110;52.386;16.940;2023-03-14T03:19:09;21.98;;;4.68;;
21890;SDS011;11110;52.386;16.940;2023-03-14T03:21:40;15.07;;;3.90;;
21890;SDS011;11110;52.386;16.940;2023-03-14T03:24:10;22.15;;;4.78;;
21890;SDS011;11110;52.386;16.940;2023-03-14T03:26:39;24.17;;;4.90;;
21890;SDS011;11110;52.386;16.940;2023-03-14T03:29:09;12.88;;;3.50;;
21890;SDS011;11110;52.386;16.940;2023-03-14T03:31:39;13.27;;;3.83;;
21890;SDS011;11110;52.386;16.940;2023-03-14T03:34:09;19.50;;;4.75;;
21890;SDS011;11110;52.386;16.940;2023-03-14T03:36:37;15.68;;;4.18;;
21890;SDS011;11110;52.386;16.940;2023-03-14T03:39:07;15.82;;;4.10;;
21890;SDS011;11110;52.386;16.940;2023-03-14T03:41:35;19.05;;;4.97;;
21890;SDS011;11110;52.386;16.940;2023-03-14T03:44:04;15.35;;;4.07;;
21890;SDS011;11110;52.386;16.940;2023-03-14T03:46:34;17.25;;;4.63;;
21890;SDS011;11110;52.386;16.940;2023-03-14T03:49:03;20.17;;;5.05;;
21890;SDS011;11110;52.386;16.940;2023-03-14T03:51:32;21.95;;;5.15;;
21890;SDS011;11110;52.386;16.940;2023-03-14T03:54:00;16.65;;;4.78;;
21890;SDS011;11110;52.386;16.940;2023-03-14T03:56:32;22.10;;;5.47;;
21890;SDS011;11110;52.386;16.940;2023-03-14T03:59:01;17.92;;;5.05;;
21890;SDS011;11110;52.386;16.940;2023-03-14T04:01:29;16.50;;;5.07;;
21890;SDS011;11110;52.386;16.940;2023-03-14T04:04:00;23.70;;;5.80;;
21890;SDS011;11110;52.386;16.940;2023-03-14T04:06:29;18.25;;;5.93;;
21890;SDS011;11110;52.386;16.940;2023-03-14T04:08:59;19.60;;;5.60;;
21890;SDS011;11110;52.386;16.940;2023-03-14T04:11:47;16.58;;;4.75;;
21890;SDS011;11110;52.386;16.940;2023-03-14T04:14:18;20.55;;;6.03;;
21890;SDS011;11110;52.386;16.940;2023-03-14T04:16:53;21.08;;;5.90;;
21890;SDS011;11110;52.386;16.940;2023-03-14T04:19:23;18.38;;;5.32;;
21890;SDS011;11110;52.386;16.940;2023-03-14T04:21:54;25.00;;;6.55;;
21890;SDS011;11110;52.386;16.940;2023-03-14T04:24:26;20.50;;;5.60;;
21890;SDS011;11110;52.386;16.940;2023-03-14T04:26:56;21.65;;;7.13;;
21890;SDS011;11110;52.386;16.940;2023-03-14T04:29:25;17.85;;;5.50;;
21890;SDS011;11110;52.386;16.940;2023-03-14T04:31:54;25.80;;;5.97;;
21890;SDS011;11110;52.386;16.940;2023-03-14T04:34:25;21.85;;;6.18;;
21890;SDS011;11110;52.386;16.940;2023-03-14T04:36:55;17.75;;;4.60;;
21890;SDS011;11110;52.386;16.940;2023-03-14T04:39:30;22.38;;;5.70;;
21890;SDS011;11110;52.386;16.940;2023-03-14T04:42:07;30.42;;;6.65;;
21890;SDS011;11110;52.386;16.940;2023-03-14T04:44:37;24.88;;;6.55;;
21890;SDS011;11110;52.386;16.940;2023-03-14T04:47:06;22.53;;;5.93;;
21890;SDS011;11110;52.386;16.940;2023-03-14T04:49:38;23.10;;;5.47;;
21890;SDS011;11110;52.386;16.940;2023-03-14T04:52:08;29.70;;;6.97;;
21890;SDS011;11110;52.386;16.940;2023-03-14T04:54:37;13.33;;;4.73;;
21890;SDS011;11110;52.386;16.940;2023-03-14T04:57:06;22.65;;;6.15;;
21890;SDS011;11110;52.386;16.940;2023-03-14T04:59:37;22.80;;;6.07;;
21890;SDS011;11110;52.386;16.940;2023-03-14T05:02:23;25.52;;;6.53;;
21890;SDS011;11110;52.386;16.940;2023-03-14T05:05:10;25.23;;;6.27;;
21890;SDS011;11110;52.386;16.940;2023-03-14T05:08:00;22.60;;;5.90;;
21890;SDS011;11110;52.386;16.940;2023-03-14T05:10:56;25.00;;;6.27;;
21890;SDS011;11110;52.386;16.940;2023-03-14T05:13:43;17.10;;;5.00;;
21890;SDS011;11110;52.386;16.940;2023-03-14T05:16:34;29.70;;;6.80;;
21890;SDS011;11110;52.386;16.940;2023-03-14T05:19:12;20.17;;;6.38;;
21890;SDS011;11110;52.386;16.940;2023-03-14T05:22:00;23.57;;;6.37;;
21890;SDS011;11110;52.386;16.940;2023-03-14T05:24:55;22.13;;;7.10;;
21890;SDS011;11110;52.386;16.940;2023-03-14T05:27:46;25.70;;;7.07;;
21890;SDS011;11110;52.386;16.940;2023-03-14T05:30:47;21.87;;;6.33;;
21890;SDS011;11110;52.386;16.940;2023-03-14T05:33:36;22.53;;;6.77;;
21890;SDS011;11110;52.386;16.940;2023-03-14T05:36:28;23.77;;;6.70;;
21890;SDS011;11110;52.386;16.940;2023-03-14T05:39:15;21.47;;;6.10;;
21890;SDS011;11110;52.386;16.940;2023-03-14T05:42:02;18.77;;;5.43;;
21890;SDS011;11110;52.386;16.940;2023-03-14T05:44:51;22.83;;;6.63;;
21890;SDS011;11110;52.386;16.940;2023-03-14T05:47:38;21.30;;;6.10;;
21890;SDS011;11110;52.386;16.940;2023-03-14T05:50:27;25.00;;;6.33;;
21890;SDS011;11110;52.386;16.940;2023-03-14T05:53:21;23.73;;;7.20;;
21890;SDS011;11110;52.386;16.940;2023-03-14T05:56:13;27.87;;;7.87;;
21890;SDS011;11110;52.386;16.940;2023-03-14T05:59:10;26.30;;;6.87;;
21890;SDS011;11110;52.386;16.940;2023-03-14T06:02:01;21.00;;;5.90;;
21890;SDS011;11110;52.386;16.940;2023-03-14T06:04:39;24.37;;;6.40;;
21890;SDS011;11110;52.386;16.940;2023-03-14T06:07:08;16.63;;;5.03;;
21890;SDS011;11110;52.386;16.940;2023-03-14T06:09:37;23.43;;;6.57;;
21890;SDS011;11110;52.386;16.940;2023-03-14T06:12:08;21.97;;;6.13;;
21890;SDS011;11110;52.386;16.940;2023-03-14T06:14:41;21.67;;;5.87;;
21890;SDS011;11110;52.386;16.940;2023-03-14T06:17:10;24.40;;;6.63;;
21890;SDS011;11110;52.386;16.940;2023-03-14T06:19:54;22.73;;;6.63;;
21890;SDS011;11110;52.386;16.940;2023-03-14T06:22:23;23.00;;;6.33;;
21890;SDS011;11110;52.386;16.940;2023-03-14T06:24:52;23.67;;;6.23;;
21890;SDS011;11110;52.386;16.940;2023-03-14T06:27:24;22.17;;;6.83;;
21890;SDS011;11110;52.386;16.940;2023-03-14T06:29:55;22.80;;;6.63;;
21890;SDS011;11110;52.386;16.940;2023-03-14T06:32:25;22.97;;;7.50;;
21890;SDS011;11110;52.386;16.940;2023-03-14T06:34:58;15.73;;;5.20;;
21890;SDS011;11110;52.386;16.940;2023-03-14T06:37:29;24.83;;;6.13;;
21890;SDS011;11110;52.386;16.940;2023-03-14T06:39:58;30.00;;;7.72;;
21890;SDS011;11110;52.386;16.940;2023-03-14T06:42:47;24.93;;;6.40;;
21890;SDS011;11110;52.386;16.940;2023-03-14T06:45:17;27.10;;;6.55;;
21890;SDS011;11110;52.386;16.940;2023-03-14T06:47:47;17.50;;;5.63;;
21890;SDS011;11110;52.386;16.940;2023-03-14T06:50:19;22.03;;;6.83;;
21890;SDS011;11110;52.386;16.940;2023-03-14T06:52:50;29.17;;;7.28;;
21890;SDS011;11110;52.386;16.940;2023-03-14T06:55:22;21.77;;;5.95;;
21890;SDS011;11110;52.386;16.940;2023-03-14T06:57:54;19.25;;;5.47;;
21890;SDS011;11110;52.386;16.940;2023-03-14T07:00:23;26.20;;;6.57;;
21890;SDS011;11110;52.386;16.940;2023-03-14T07:02:55;22.88;;;5.85;;
21890;SDS011;11110;52.386;16.940;2023-03-14T07:05:29;16.77;;;4.85;;
21890;SDS011;11110;52.386;16.940;2023-03-14T07:07:58;16.45;;;5.10;;
21890;SDS011;11110;52.386;16.940;2023-03-14T07:10:27;19.77;;;5.45;;
21890;SDS011;11110;52.386;16.940;2023-03-14T07:12:58;22.75;;;5.57;;
21890;SDS011;11110;52.386;16.940;2023-03-14T07:15:30;20.73;;;5.43;;
21890;SDS011;11110;52.386;16.940;2023-03-14T07:18:04;18.48;;;5.40;;
21890;SDS011;11110;52.386;16.940;2023-03-14T07:20:32;23.00;;;5.68;;
21890;SDS011;11110;52.386;16.940;2023-03-14T07:23:02;15.07;;;4.60;;
21890;SDS011;11110;52.386;16.940;2023-03-14T07:25:38;14.35;;;4.13;;
21890;SDS011;11110;52.386;16.940;2023-03-14T07:28:09;17.15;;;4.97;;
21890;SDS011;11110;52.386;16.940;2023-03-14T07:30:40;20.05;;;5.03;;
21890;SDS011;11110;52.386;16.940;2023-03-14T07:33:15;22.30;;;5.30;;
21890;SDS011;11110;52.386;16.940;2023-03-14T07:35:44;14.82;;;4.28;;
21890;SDS011;11110;52.386;16.940;2023-03-14T07:38:14;12.43;;;3.92;;
21890;SDS011;11110;52.386;16.940;2023-03-14T07:41:09;15.15;;;4.10;;
21890;SDS011;11110;52.386;16.940;2023-03-14T07:43:50;16.50;;;4.18;;
21890;SDS011;11110;52.386;16.940;2023-03-14T07:46:20;16.77;;;4.18;;
21890;SDS011;11110;52.386;16.940;2023-03-14T07:48:49;16.92;;;4.72;;
21890;SDS011;11110;52.386;16.940;2023-03-14T07:51:18;22.35;;;5.97;;
21890;SDS011;11110;52.386;16.940;2023-03-14T07:53:46;12.65;;;3.70;;
21890;SDS011;11110;52.386;16.940;2023-03-14T07:56:15;18.75;;;4.53;;
21890;SDS011;11110;52.386;16.940;2023-03-14T07:58:44;19.20;;;4.40;;
21890;SDS011;11110;52.386;16.940;2023-03-14T08:01:14;18.35;;;5.68;;
21890;SDS011;11110;52.386;16.940;2023-03-14T08:03:43;19.08;;;4.75;;
21890;SDS011;11110;52.386;16.940;2023-03-14T08:06:11;26.77;;;6.50;;
21890;SDS011;11110;52.386;16.940;2023-03-14T08:08:40;14.70;;;3.83;;
21890;SDS011;11110;52.386;16.940;2023-03-14T08:11:09;19.70;;;4.68;;
21890;SDS011;11110;52.386;16.940;2023-03-14T08:13:38;13.13;;;3.30;;
21890;SDS011;11110;52.386;16.940;2023-03-14T08:16:07;20.15;;;4.15;;
21890;SDS011;11110;52.386;16.940;2023-03-14T08:18:38;12.13;;;3.50;;
21890;SDS011;11110;52.386;16.940;2023-03-14T08:21:06;21.02;;;4.80;;
21890;SDS011;11110;52.386;16.940;2023-03-14T08:23:35;16.25;;;4.20;;
21890;SDS011;11110;52.386;16.940;2023-03-14T08:26:04;11.82;;;3.78;;
21890;SDS011;11110;52.386;16.940;2023-03-14T08:28:34;21.00;;;3.80;;
21890;SDS011;11110;52.386;16.940;2023-03-14T08:31:03;17.27;;;4.18;;
21890;SDS011;11110;52.386;16.940;2023-03-14T08:33:32;12.40;;;3.97;;
21890;SDS011;11110;52.386;16.940;2023-03-14T08:36:02;16.70;;;4.53;;
21890;SDS011;11110;52.386;16.940;2023-03-14T08:38:31;15.48;;;3.63;;
21890;SDS011;11110;52.386;16.940;2023-03-14T08:41:00;14.50;;;3.50;;
21890;SDS011;11110;52.386;16.940;2023-03-14T08:43:30;16.13;;;3.75;;
21890;SDS011;11110;52.386;16.940;2023-03-14T08:45:59;19.92;;;4.22;;
21890;SDS011;11110;52.386;16.940;2023-03-14T08:48:29;14.57;;;3.65;;
21890;SDS011;11110;52.386;16.940;2023-03-14T08:51:04;20.42;;;4.30;;
21890;SDS011;11110;52.386;16.940;2023-03-14T08:53:34;17.17;;;4.10;;
21890;SDS011;11110;52.386;16.940;2023-03-14T08:56:03;13.68;;;3.28;;
21890;SDS011;11110;52.386;16.940;2023-03-14T08:58:33;18.95;;;3.97;;
21890;SDS011;11110;52.386;16.940;2023-03-14T09:01:03;19.88;;;4.32;;
21890;SDS011;11110;52.386;16.940;2023-03-14T09:03:33;14.82;;;4.43;;
21890;SDS011;11110;52.386;16.940;2023-03-14T09:06:02;18.63;;;3.85;;
21890;SDS011;11110;52.386;16.940;2023-03-14T09:08:33;14.60;;;3.92;;
21890;SDS011;11110;52.386;16.940;2023-03-14T09:11:06;12.80;;;3.28;;
21890;SDS011;11110;52.386;16.940;2023-03-14T09:13:36;18.00;;;4.22;;
21890;SDS011;11110;52.386;16.940;2023-03-14T09:16:05;11.02;;;2.95;;
21890;SDS011;11110;52.386;16.940;2023-03-14T09:18:35;16.58;;;3.92;;
21890;SDS011;11110;52.386;16.940;2023-03-14T09:21:04;17.13;;;3.95;;
21890;SDS011;11110;52.386;16.940;2023-03-14T09:23:34;18.42;;;4.38;;
21890;SDS011;11110;52.386;16.940;2023-03-14T09:26:03;14.05;;;3.40;;
21890;SDS011;11110;52.386;16.940;2023-03-14T09:28:32;13.32;;;3.55;;
21890;SDS011;11110;52.386;16.940;2023-03-14T09:31:05;13.27;;;3.40;;
21890;SDS011;11110;52.386;16.940;2023-03-14T09:33:34;12.50;;;3.55;;
21890;SDS011;11110;52.386;16.940;2023-03-14T09:36:03;21.00;;;5.95;;
21890;SDS011;11110;52.386;16.940;2023-03-14T09:38:35;14.05;;;3.40;;
21890;SDS011;11110;52.386;16.940;2023-03-14T09:41:09;13.40;;;3.38;;
21890;SDS011;11110;52.386;16.940;2023-03-14T09:43:42;15.32;;;3.85;;
21890;SDS011;11110;52.386;16.940;2023-03-14T09:46:13;12.23;;;4.22;;
21890;SDS011;11110;52.386;16.940;2023-03-14T09:48:43;14.90;;;3.53;;
21890;SDS011;11110;52.386;16.940;2023-03-14T09:51:14;17.25;;;4.10;;
21890;SDS011;11110;52.386;16.940;2023-03-14T09:53:47;15.68;;;3.97;;
21890;SDS011;11110;52.386;16.940;2023-03-14T09:56:19;14.98;;;3.80;;
21890;SDS011;11110;52.386;16.940;2023-03-14T09:58:50;16.48;;;3.88;;
21890;SDS011;11110;52.386;16.940;2023-03-14T10:01:22;14.15;;;4.18;;
21890;SDS011;11110;52.386;16.940;2023-03-14T10:03:59;15.05;;;4.05;;
21890;SDS011;11110;52.386;16.940;2023-03-14T10:06:30;13.55;;;3.60;;
21890;SDS011;11110;52.386;16.940;2023-03-14T10:09:00;13.43;;;4.00;;
21890;SDS011;11110;52.386;16.940;2023-03-14T10:11:32;16.42;;;4.07;;
21890;SDS011;11110;52.386;16.940;2023-03-14T10:14:02;14.32;;;3.63;;
21890;SDS011;11110;52.386;16.940;2023-03-14T10:16:33;16.27;;;3.72;;
21890;SDS011;11110;52.386;16.940;2023-03-14T10:19:04;12.85;;;3.67;;
21890;SDS011;11110;52.386;16.940;2023-03-14T10:21:37;19.48;;;3.83;;
21890;SDS011;11110;52.386;16.940;2023-03-14T10:24:10;12.50;;;3.15;;
21890;SDS011;11110;52.386;16.940;2023-03-14T10:26:49;11.15;;;2.95;;
21890;SDS011;11110;52.386;16.940;2023-03-14T10:29:20;18.52;;;4.40;;
21890;SDS011;11110;52.386;16.940;2023-03-14T10:31:51;14.75;;;3.95;;
21890;SDS011;11110;52.386;16.940;2023-03-14T10:34:23;9.55;;;3.00;;
21890;SDS011;11110;52.386;16.940;2023-03-14T10:36:53;13.60;;;3.45;;
21890;SDS011;11110;52.386;16.940;2023-03-14T10:39:32;18.75;;;3.95;;
21890;SDS011;11110;52.386;16.940;2023-03-14T10:42:12;17.08;;;3.67;;
21890;SDS011;11110;52.386;16.940;2023-03-14T10:44:48;14.27;;;3.50;;
21890;SDS011;11110;52.386;16.940;2023-03-14T10:47:22;16.83;;;4.25;;
21890;SDS011;11110;52.386;16.940;2023-03-14T10:49:53;16.00;;;3.67;;
21890;SDS011;11110;52.386;16.940;2023-03-14T10:52:22;18.50;;;4.13;;
21890;SDS011;11110;52.386;16.940;2023-03-14T10:55:08;16.73;;;3.88;;
21890;SDS011;11110;52.386;16.940;2023-03-14T10:57:38;16.63;;;4.15;;
21890;SDS011;11110;52.386;16.940;2023-03-14T11:00:11;14.30;;;3.65;;
21890;SDS011;11110;52.386;16.940;2023-03-14T11:02:57;15.98;;;4.03;;
21890;SDS011;11110;52.386;16.940;2023-03-14T11:05:34;10.00;;;2.78;;
21890;SDS011;11110;52.386;16.940;2023-03-14T11:08:07;19.92;;;4.22;;
21890;SDS011;11110;52.386;16.940;2023-03-14T11:10:45;10.80;;;3.08;;
21890;SDS011;11110;52.386;16.940;2023-03-14T11:13:18;16.52;;;3.83;;
21890;SDS011;11110;52.386;16.940;2023-03-14T11:15:55;12.52;;;3.35;;
21890;SDS011;11110;52.386;16.940;2023-03-14T11:18:36;15.50;;;4.25;;
21890;SDS011;11110;52.386;16.940;2023-03-14T11:21:20;7.05;;;2.53;;
21890;SDS011;11110;52.386;16.940;2023-03-14T11:23:55;13.82;;;4.00;;
21890;SDS011;11110;52.386;16.940;2023-03-14T11:26:42;12.27;;;3.17;;
21890;SDS011;11110;52.386;16.940;2023-03-14T11:29:20;14.27;;;3.83;;
21890;SDS011;11110;52.386;16.940;2023-03-14T11:31:50;13.20;;;2.90;;
21890;SDS011;11110;52.386;16.940;2023-03-14T11:34:24;15.10;;;3.53;;
21890;SDS011;11110;52.386;16.940;2023-03-14T11:36:58;18.33;;;4.95;;
21890;SDS011;11110;52.386;16.940;2023-03-14T11:39:29;13.27;;;3.42;;
21890;SDS011;11110;52.386;16.940;2023-03-14T11:42:10;22.05;;;4.97;;
21890;SDS011;11110;52.386;16.940;2023-03-14T11:44:40;13.20;;;3.70;;
21890;SDS011;11110;52.386;16.940;2023-03-14T11:47:13;15.43;;;4.00;;
21890;SDS011;11110;52.386;16.940;2023-03-14T11:49:47;18.30;;;4.57;;
21890;SDS011;11110;52.386;16.940;2023-03-14T11:52:20;12.98;;;3.40;;
21890;SDS011;11110;52.386;16.940;2023-03-14T11:54:53;13.77;;;3.85;;
21890;SDS011;11110;52.386;16.940;2023-03-14T11:57:27;16.25;;;4.32;;
21890;SDS011;11110;52.386;16.940;2023-03-14T11:59:57;13.93;;;4.07;;
21890;SDS011;11110;52.386;16.940;2023-03-14T12:02:40;17.42;;;3.85;;
21890;SDS011;11110;52.386;16.940;2023-03-14T12:05:31;15.40;;;3.95;;
21890;SDS011;11110;52.386;16.940;2023-03-14T12:11:12;13.68;;;3.75;;
21890;SDS011;11110;52.386;16.940;2023-03-14T12:13:48;12.93;;;3.60;;
21890;SDS011;11110;52.386;16.940;2023-03-14T12:22:12;14.48;;;3.85;;
21890;SDS011;11110;52.386;16.940;2023-03-14T12:24:55;18.60;;;3.92;;
21890;SDS011;11110;52.386;16.940;2023-03-14T12:27:42;13.00;;;3.10;;
21890;SDS011;11110;52.386;16.940;2023-03-14T12:30:22;16.02;;;3.25;;
21890;SDS011;11110;52.386;16.940;2023-03-14T12:33:19;19.17;;;4.47;;
21890;SDS011;11110;52.386;16.940;2023-03-14T12:35:59;15.05;;;3.58;;
21890;SDS011;11110;52.386;16.940;2023-03-14T12:38:37;15.77;;;3.33;;
21890;SDS011;11110;52.386;16.940;2023-03-14T12:41:29;13.82;;;2.95;;
21890;SDS011;11110;52.386;16.940;2023-03-14T12:50:14;18.58;;;3.60;;
21890;SDS011;11110;52.386;16.940;2023-03-14T12:52:57;12.38;;;3.35;;
21890;SDS011;11110;52.386;16.940;2023-03-14T12:55:48;14.52;;;3.28;;
21890;SDS011;11110;52.386;16.940;2023-03-14T12:58:21;14.32;;;3.42;;
21890;SDS011;11110;52.386;16.940;2023-03-14T13:00:59;14.13;;;3.28;;
21890;SDS011;11110;52.386;16.940;2023-03-14T13:03:36;15.10;;;3.10;;
21890;SDS011;11110;52.386;16.940;2023-03-14T13:06:12;13.15;;;2.72;;
21890;SDS011;11110;52.386;16.940;2023-03-14T13:08:41;12.77;;;3.08;;
21890;SDS011;11110;52.386;16.940;2023-03-14T13:11:12;10.63;;;2.75;;
21890;SDS011;11110;52.386;16.940;2023-03-14T13:13:45;9.68;;;2.40;;
21890;SDS011;11110;52.386;16.940;2023-03-14T13:16:16;10.55;;;2.58;;
21890;SDS011;11110;52.386;16.940;2023-03-14T13:18:47;10.80;;;2.53;;
21890;SDS011;11110;52.386;16.940;2023-03-14T13:21:20;28.88;;;8.10;;
21890;SDS011;11110;52.386;16.940;2023-03-14T13:23:57;18.63;;;3.92;;
21890;SDS011;11110;52.386;16.940;2023-03-14T13:26:32;13.48;;;2.88;;
21890;SDS011;11110;52.386;16.940;2023-03-14T13:29:11;14.88;;;3.13;;
21890;SDS011;11110;52.386;16.940;2023-03-14T13:31:44;13.23;;;2.88;;
21890;SDS011;11110;52.386;16.940;2023-03-14T13:34:14;11.60;;;2.63;;
21890;SDS011;11110;52.386;16.940;2023-03-14T13:36:44;16.88;;;3.58;;
21890;SDS011;11110;52.386;16.940;2023-03-14T13:39:17;15.88;;;3.22;;
21890;SDS011;11110;52.386;16.940;2023-03-14T13:41:48;13.68;;;3.13;;
21890;SDS011;11110;52.386;16.940;2023-03-14T13:44:18;14.15;;;3.30;;
21890;SDS011;11110;52.386;16.940;2023-03-14T13:46:52;12.57;;;2.83;;
21890;SDS011;11110;52.386;16.940;2023-03-14T13:49:26;14.02;;;3.05;;
21890;SDS011;11110;52.386;16.940;2023-03-14T13:52:00;10.15;;;2.65;;
21890;SDS011;11110;52.386;16.940;2023-03-14T13:54:30;15.02;;;3.45;;
21890;SDS011;11110;52.386;16.940;2023-03-14T13:57:00;15.30;;;3.25;;
21890;SDS011;11110;52.386;16.940;2023-03-14T13:59:30;14.07;;;3.28;;
21890;SDS011;11110;52.386;16.940;2023-03-14T14:02:00;12.32;;;3.05;;
21890;SDS011;11110;52.386;16.940;2023-03-14T14:04:32;12.35;;;2.97;;
21890;SDS011;11110;52.386;16.940;2023-03-14T14:07:07;9.27;;;2.30;;
21890;SDS011;11110;52.386;16.940;2023-03-14T14:09:39;15.60;;;3.22;;
21890;SDS011;11110;52.386;16.940;2023-03-14T14:12:11;11.85;;;3.15;;
21890;SDS011;11110;52.386;16.940;2023-03-14T14:14:44;10.63;;;2.47;;
21890;SDS011;11110;52.386;16.940;2023-03-14T14:17:16;14.32;;;3.67;;
21890;SDS011;11110;52.386;16.940;2023-03-14T14:19:49;16.15;;;3.50;;
21890;SDS011;11110;52.386;16.940;2023-03-14T14:22:21;17.50;;;3.42;;
21890;SDS011;11110;52.386;16.940;2023-03-14T14:24:50;14.88;;;3.35;;
21890;SDS011;11110;52.386;16.940;2023-03-14T14:27:19;13.75;;;3.28;;
21890;SDS011;11110;52.386;16.940;2023-03-14T14:29:56;11.73;;;2.55;;
21890;SDS011;11110;52.386;16.940;2023-03-14T14:32:34;14.68;;;3.17;;
21890;SDS011;11110;52.386;16.940;2023-03-14T14:35:05;9.77;;;2.35;;
21890;SDS011;11110;52.386;16.940;2023-03-14T14:37:40;13.27;;;2.97;;
21890;SDS011;11110;52.386;16.940;2023-03-14T14:40:16;9.32;;;2.35;;
21890;SDS011;11110;52.386;16.940;2023-03-14T14:42:47;13.82;;;3.17;;
21890;SDS011;11110;52.386;16.940;2023-03-14T14:45:18;16.33;;;3.38;;
21890;SDS011;11110;52.386;16.940;2023-03-14T14:47:49;11.85;;;2.58;;
21890;SDS011;11110;52.386;16.940;2023-03-14T14:50:27;14.65;;;2.92;;
21890;SDS011;11110;52.386;16.940;2023-03-14T14:52:59;12.60;;;2.80;;
21890;SDS011;11110;52.386;16.940;2023-03-14T14:55:30;12.52;;;3.03;;
21890;SDS011;11110;52.386;16.940;2023-03-14T14:58:11;13.05;;;3.05;;
21890;SDS011;11110;52.386;16.940;2023-03-14T15:00:53;9.18;;;2.25;;
21890;SDS011;11110;52.386;16.940;2023-03-14T15:03:25;15.82;;;3.28;;
21890;SDS011;11110;52.386;16.940;2023-03-14T15:05:57;13.32;;;2.85;;
21890;SDS011;11110;52.386;16.940;2023-03-14T15:08:27;16.40;;;3.63;;
21890;SDS011;11110;52.386;16.940;2023-03-14T15:10:56;18.65;;;3.97;;
21890;SDS011;11110;52.386;16.940;2023-03-14T15:13:25;12.20;;;3.10;;